createdAt,value
2022-11-19T00:01:41.360Z,-4.10
2022-11-19T00:06:43.929Z,-4.10
2022-11-19T00:12:04.965Z,-4.20
2022-11-19T00:17:07.510Z,-4.20
2022-11-19T00:22:10.013Z,-4.30
2022-11-19T00:27:13.197Z,-4.30
2022-11-19T00:32:15.722Z,-4.30
2022-11-19T00:37:18.235Z,-4.40
2022-11-19T00:42:21.734Z,-4.40
2022-11-19T00:47:24.183Z,-4.60
2022-11-19T00:52:26.596Z,-4.60
2022-11-19T00:57:28.958Z,-4.70
2022-11-19T01:02:31.495Z,-4.90
2022-11-19T01:07:34.029Z,-5.00
2022-11-19T01:12:56.427Z,-5.00
2022-11-19T01:17:58.897Z,-5.00
2022-11-19T01:33:07.589Z,-5.50
2022-11-19T01:38:10.264Z,-5.60
2022-11-19T01:58:32.761Z,-6.20
2022-11-19T02:03:36.563Z,-6.00
2022-11-19T02:08:47.777Z,-6.00
2022-11-19T02:19:44.966Z,-6.30
2022-11-19T02:24:50.330Z,-6.30
2022-11-19T02:30:13.418Z,-6.30
2022-11-19T02:40:43.130Z,-6.70
2022-11-19T02:45:51.698Z,-6.60
2022-11-19T02:50:58.390Z,-6.70
2022-11-19T02:56:17.874Z,-6.60
2022-11-19T03:01:40.477Z,-6.70
2022-11-19T03:06:43.089Z,-6.70
2022-11-19T03:11:52.145Z,-6.80
2022-11-19T03:17:03.202Z,-6.90
2022-11-19T03:22:14.730Z,-6.90
2022-11-19T03:27:24.226Z,-7.10
2022-11-19T03:32:31.362Z,-7.10
2022-11-19T03:37:38.723Z,-7.10
2022-11-19T03:42:43.929Z,-6.90
2022-11-19T03:47:50.180Z,-7.10
2022-11-19T03:52:52.831Z,-7.20
2022-11-19T03:58:00.395Z,-7.20
2022-11-19T04:03:02.861Z,-7.30
2022-11-19T04:08:05.896Z,-7.10
2022-11-19T04:13:08.290Z,-7.10
2022-11-19T04:23:13.496Z,-6.80
2022-11-19T04:28:15.927Z,-7.40
2022-11-19T04:33:18.520Z,-7.30
2022-11-19T04:38:20.932Z,-7.20
2022-11-19T04:43:23.310Z,-7.40
2022-11-19T04:48:25.949Z,-7.30
2022-11-19T04:53:28.401Z,-7.40
2022-11-19T04:58:30.869Z,-7.40
2022-11-19T05:03:33.462Z,-7.60
2022-11-19T05:08:35.932Z,-7.60
2022-11-19T05:13:38.677Z,-7.60
2022-11-19T05:18:41.153Z,-7.60
2022-11-19T05:23:43.635Z,-7.60
2022-11-19T05:33:48.623Z,-7.70
2022-11-19T05:38:51.106Z,-7.50
2022-11-19T05:43:53.653Z,-7.40
2022-11-19T05:48:56.215Z,-7.50
2022-11-19T05:53:58.756Z,-7.30
2022-11-19T05:59:01.590Z,-7.30
2022-11-19T06:04:04.105Z,-7.30
2022-11-19T06:14:29.953Z,-7.20
2022-11-19T06:19:32.586Z,-7.20
2022-11-19T06:24:34.987Z,-7.00
2022-11-19T06:29:37.386Z,-6.80
2022-11-19T06:34:39.830Z,-6.80
2022-11-19T06:39:43.118Z,-6.70
2022-11-19T06:44:45.747Z,-6.40
2022-11-19T06:49:48.205Z,-6.20
2022-11-19T06:54:50.693Z,-6.10
2022-11-19T06:59:53.188Z,-5.90
2022-11-19T07:04:55.596Z,-5.70
2022-11-19T07:09:58.026Z,-5.50
2022-11-19T07:15:04.232Z,-5.30
2022-11-19T07:20:08.428Z,-5.00
2022-11-19T07:25:14.191Z,-4.80
2022-11-19T07:30:17.480Z,-4.50
2022-11-19T07:35:20.054Z,-4.20
2022-11-19T07:40:22.941Z,-3.90
2022-11-19T07:45:25.329Z,-3.80
2022-11-19T07:50:27.729Z,-3.70
2022-11-19T07:55:30.231Z,-3.60
2022-11-19T08:00:32.649Z,-3.40
2022-11-19T08:05:38.366Z,-3.40
2022-11-19T08:10:43.450Z,-3.10
2022-11-19T08:15:45.914Z,-3.30
2022-11-19T08:20:48.912Z,-3.30
2022-11-19T08:25:53.050Z,-3.20
2022-11-19T08:30:56.129Z,-3.00
2022-11-19T08:35:58.546Z,-2.70
2022-11-19T08:41:23.988Z,-2.60
2022-11-19T08:46:26.418Z,-2.50
2022-11-19T08:51:28.979Z,-2.30
2022-11-19T08:56:31.802Z,-2.40
2022-11-19T09:01:34.236Z,-2.20
2022-11-19T09:06:36.658Z,-2.10
2022-11-19T09:11:42.620Z,-1.90
2022-11-19T09:16:45.518Z,-1.70
2022-11-19T09:21:48.306Z,-1.60
2022-11-19T09:26:53.000Z,-1.30
2022-11-19T09:31:55.834Z,-1.00
2022-11-19T09:36:58.599Z,-1.00
2022-11-19T09:42:36.286Z,-0.90
2022-11-19T09:48:00.036Z,-0.80
2022-11-19T09:53:32.124Z,-0.80
2022-11-19T09:58:43.250Z,-0.20
2022-11-19T10:03:51.137Z,-0.40
2022-11-19T10:09:21.904Z,0.60
2022-11-19T10:14:53.985Z,0.60
2022-11-19T10:20:33.954Z,0.40
2022-11-19T10:25:40.978Z,0.50
2022-11-19T10:30:52.873Z,0.70
2022-11-19T10:35:59.843Z,0.30
2022-11-19T10:41:11.899Z,0.20
2022-11-19T10:46:19.763Z,0.40
2022-11-19T10:51:27.580Z,0.30
2022-11-19T10:56:39.951Z,3.40
2022-11-19T11:01:45.529Z,1.60
2022-11-19T11:07:05.438Z,2.50
2022-11-19T11:12:35.540Z,1.40
2022-11-19T11:17:39.124Z,1.20
2022-11-19T11:22:48.428Z,3.80
2022-11-19T11:28:05.215Z,2.30
2022-11-19T11:33:25.929Z,2.70
2022-11-19T11:38:29.455Z,1.50
2022-11-19T11:43:34.687Z,1.20
2022-11-19T11:48:44.580Z,1.20
2022-11-19T11:54:04.455Z,0.80
2022-11-19T11:59:27.339Z,1.80
2022-11-19T12:04:30.323Z,0.70
2022-11-19T12:09:42.489Z,1.10
2022-11-19T12:15:03.528Z,0.90
2022-11-19T12:20:36.901Z,0.70
2022-11-19T12:25:58.340Z,2.60
2022-11-19T12:31:35.309Z,8.10
2022-11-19T12:36:49.475Z,9.90
2022-11-19T12:42:13.535Z,9.90
2022-11-19T12:47:45.031Z,4.20
2022-11-19T12:53:19.135Z,3.60
2022-11-19T12:58:53.822Z,7.20
2022-11-19T13:04:05.261Z,8.20
2022-11-19T22:36:40.381Z,0.50
2022-11-19T22:41:42.917Z,3.90
2022-11-19T22:46:45.493Z,4.80
2022-11-19T22:51:49.375Z,5.70
2022-11-19T22:56:52.171Z,5.80
2022-11-19T23:01:54.598Z,5.60
2022-11-19T23:06:57.132Z,5.50
2022-11-19T23:12:18.192Z,5.90
2022-11-19T23:17:20.665Z,6.10
2022-11-19T23:22:23.274Z,6.30
2022-11-19T23:27:25.694Z,2.70
2022-11-19T23:32:29.354Z,1.30
2022-11-19T23:37:31.899Z,0.60
2022-11-19T23:42:34.404Z,0.90
2022-11-19T23:47:38.017Z,0.40
2022-11-19T23:52:40.469Z,0.00
2022-11-19T23:57:42.889Z,-0.30
